sensor_id;sensor_type;location;lat;lon;timestamp;pressure;altitude;pressure_sealevel;temperature;humidity
6532;BME280;3299;42.004;24.868;2022-09-09T00:04:40;98465.47;;;20.24;76.52
6532;BME280;3299;42.004;24.868;2022-09-09T00:15:21;98446.53;;;20.69;73.75
6532;BME280;3299;42.004;24.868;2022-09-09T00:20:46;98441.28;;;20.53;71.72
6532;BME280;3299;42.004;24.868;2022-09-09T00:28:23;98439.44;;;20.69;73.81
6532;BME280;3299;42.004;24.868;2022-09-09T00:30:49;98401.38;;;20.41;74.59
6532;BME280;3299;42.004;24.868;2022-09-09T00:33:24;98446.88;;;20.50;75.73
6532;BME280;3299;42.004;24.868;2022-09-09T00:35:57;98438.34;;;20.40;76.36
6532;BME280;3299;42.004;24.868;2022-09-09T00:38:37;98447.53;;;20.20;77.10
6532;BME280;3299;42.004;24.868;2022-09-09T00:41:22;98449.97;;;20.05;77.20
6532;BME280;3299;42.004;24.868;2022-09-09T00:57:34;98461.34;;;19.48;83.85
6532;BME280;3299;42.004;24.868;2022-09-09T01:06:14;98463.75;;;19.99;81.74
6532;BME280;3299;42.004;24.868;2022-09-09T01:11:25;98478.03;;;19.89;82.31
6532;BME280;3299;42.004;24.868;2022-09-09T01:16:35;98475.06;;;19.26;87.03
6532;BME280;3299;42.004;24.868;2022-09-09T01:19:02;98461.44;;;19.23;87.10
6532;BME280;3299;42.004;24.868;2022-09-09T01:21:50;98470.16;;;19.31;86.67
6532;BME280;3299;42.004;24.868;2022-09-09T01:27:02;98466.72;;;19.39;86.56
6532;BME280;3299;42.004;24.868;2022-09-09T01:29:29;98451.19;;;19.20;88.18
6532;BME280;3299;42.004;24.868;2022-09-09T01:31:57;98454.38;;;18.98;89.23
6532;BME280;3299;42.004;24.868;2022-09-09T01:34:26;98444.88;;;18.97;89.77
6532;BME280;3299;42.004;24.868;2022-09-09T01:36:59;98454.56;;;19.04;88.81
6532;BME280;3299;42.004;24.868;2022-09-09T01:39:27;98454.00;;;18.93;89.46
6532;BME280;3299;42.004;24.868;2022-09-09T01:41:55;98455.81;;;18.92;89.39
6532;BME280;3299;42.004;24.868;2022-09-09T01:44:22;98453.94;;;18.77;90.29
6532;BME280;3299;42.004;24.868;2022-09-09T01:46:48;98451.56;;;18.66;91.61
6532;BME280;3299;42.004;24.868;2022-09-09T01:49:13;98447.94;;;18.59;91.31
6532;BME280;3299;42.004;24.868;2022-09-09T01:51:40;98442.88;;;18.65;91.49
6532;BME280;3299;42.004;24.868;2022-09-09T01:54:08;98447.66;;;18.70;91.24
6532;BME280;3299;42.004;24.868;2022-09-09T01:57:01;98436.84;;;18.65;91.63
6532;BME280;3299;42.004;24.868;2022-09-09T02:02:51;98437.09;;;18.54;94.25
6532;BME280;3299;42.004;24.868;2022-09-09T02:05:35;98436.03;;;18.72;92.95
6532;BME280;3299;42.004;24.868;2022-09-09T02:08:24;98446.69;;;18.71;93.11
6532;BME280;3299;42.004;24.868;2022-09-09T02:11:11;98445.44;;;18.83;92.13
6532;BME280;3299;42.004;24.868;2022-09-09T02:13:38;98435.31;;;18.88;91.77
6532;BME280;3299;42.004;24.868;2022-09-09T02:16:15;98456.00;;;18.99;92.23
6532;BME280;3299;42.004;24.868;2022-09-09T02:19:08;98452.81;;;19.13;91.34
6532;BME280;3299;42.004;24.868;2022-09-09T02:21:35;98451.53;;;19.17;90.98
6532;BME280;3299;42.004;24.868;2022-09-09T02:24:04;98447.75;;;18.86;93.38
6532;BME280;3299;42.004;24.868;2022-09-09T02:26:31;98440.16;;;18.75;93.95
6532;BME280;3299;42.004;24.868;2022-09-09T02:29:01;98440.84;;;18.51;95.79
6532;BME280;3299;42.004;24.868;2022-09-09T02:31:28;98424.91;;;18.27;97.84
6532;BME280;3299;42.004;24.868;2022-09-09T02:33:59;98429.47;;;18.43;97.29
6532;BME280;3299;42.004;24.868;2022-09-09T02:36:29;98438.75;;;18.37;96.97
6532;BME280;3299;42.004;24.868;2022-09-09T02:38:56;98453.94;;;18.34;98.14
6532;BME280;3299;42.004;24.868;2022-09-09T02:41:33;98449.44;;;18.44;97.88
6532;BME280;3299;42.004;24.868;2022-09-09T02:43:59;98436.34;;;18.44;97.26
6532;BME280;3299;42.004;24.868;2022-09-09T02:54:27;98435.16;;;18.21;99.17
6532;BME280;3299;42.004;24.868;2022-09-09T02:57:21;98426.19;;;18.23;99.36
6532;BME280;3299;42.004;24.868;2022-09-09T02:59:46;98413.22;;;18.22;99.74
6532;BME280;3299;42.004;24.868;2022-09-09T03:02:12;98419.09;;;18.33;98.38
6532;BME280;3299;42.004;24.868;2022-09-09T03:04:39;98422.63;;;18.50;95.62
6532;BME280;3299;42.004;24.868;2022-09-09T03:07:05;98432.88;;;18.61;95.39
6532;BME280;3299;42.004;24.868;2022-09-09T03:09:31;98432.25;;;18.67;95.05
6532;BME280;3299;42.004;24.868;2022-09-09T03:11:57;98436.25;;;18.79;92.51
6532;BME280;3299;42.004;24.868;2022-09-09T03:14:23;98453.63;;;18.80;93.50
6532;BME280;3299;42.004;24.868;2022-09-09T03:16:52;98465.75;;;18.81;92.97
6532;BME280;3299;42.004;24.868;2022-09-09T03:19:18;98470.06;;;18.90;92.42
6532;BME280;3299;42.004;24.868;2022-09-09T03:21:44;98473.06;;;18.95;91.08
6532;BME280;3299;42.004;24.868;2022-09-09T03:24:10;98469.34;;;18.80;93.74
6532;BME280;3299;42.004;24.868;2022-09-09T03:26:35;98460.41;;;18.65;94.54
6532;BME280;3299;42.004;24.868;2022-09-09T03:29:03;98463.28;;;18.54;94.97
6532;BME280;3299;42.004;24.868;2022-09-09T03:31:30;98459.88;;;18.36;97.09
6532;BME280;3299;42.004;24.868;2022-09-09T03:33:57;98466.59;;;18.21;98.45
6532;BME280;3299;42.004;24.868;2022-09-09T03:36:23;98471.97;;;18.19;98.67
6532;BME280;3299;42.004;24.868;2022-09-09T03:38:49;98464.19;;;18.27;98.41
6532;BME280;3299;42.004;24.868;2022-09-09T03:41:15;98455.38;;;18.28;97.70
6532;BME280;3299;42.004;24.868;2022-09-09T03:43:41;98450.50;;;18.16;98.69
6532;BME280;3299;42.004;24.868;2022-09-09T03:46:07;98463.31;;;18.19;99.00
6532;BME280;3299;42.004;24.868;2022-09-09T03:48:32;98460.84;;;18.17;98.89
6532;BME280;3299;42.004;24.868;2022-09-09T03:50:57;98460.97;;;18.16;99.16
6532;BME280;3299;42.004;24.868;2022-09-09T03:53:25;98465.69;;;18.30;96.37
6532;BME280;3299;42.004;24.868;2022-09-09T03:55:53;98476.25;;;18.38;96.15
6532;BME280;3299;42.004;24.868;2022-09-09T03:58:20;98474.69;;;18.45;95.09
6532;BME280;3299;42.004;24.868;2022-09-09T04:01:02;98465.25;;;18.17;97.44
6532;BME280;3299;42.004;24.868;2022-09-09T04:03:28;98467.50;;;18.12;99.08
6532;BME280;3299;42.004;24.868;2022-09-09T04:05:56;98435.25;;;17.76;100.00
6532;BME280;3299;42.004;24.868;2022-09-09T04:08:22;98462.78;;;17.98;100.00
6532;BME280;3299;42.004;24.868;2022-09-09T04:10:50;98458.06;;;18.19;100.00
6532;BME280;3299;42.004;24.868;2022-09-09T04:13:17;98450.72;;;18.22;99.11
6532;BME280;3299;42.004;24.868;2022-09-09T04:15:44;98454.16;;;18.23;98.79
6532;BME280;3299;42.004;24.868;2022-09-09T04:18:10;98458.13;;;18.27;98.92
6532;BME280;3299;42.004;24.868;2022-09-09T04:20:37;98455.59;;;18.35;97.47
6532;BME280;3299;42.004;24.868;2022-09-09T04:23:03;98455.22;;;18.47;97.16
6532;BME280;3299;42.004;24.868;2022-09-09T04:25:28;98444.34;;;18.42;96.61
6532;BME280;3299;42.004;24.868;2022-09-09T04:27:55;98442.44;;;18.44;97.53
6532;BME280;3299;42.004;24.868;2022-09-09T04:30:21;98455.44;;;18.54;97.95
6532;BME280;3299;42.004;24.868;2022-09-09T04:32:47;98470.91;;;18.65;96.82
6532;BME280;3299;42.004;24.868;2022-09-09T04:35:12;98460.59;;;18.71;96.39
6532;BME280;3299;42.004;24.868;2022-09-09T04:37:38;98470.97;;;18.81;95.83
6532;BME280;3299;42.004;24.868;2022-09-09T04:40:03;98455.97;;;18.65;96.28
6532;BME280;3299;42.004;24.868;2022-09-09T04:42:29;98470.97;;;18.81;95.85
6532;BME280;3299;42.004;24.868;2022-09-09T04:44:55;98473.78;;;18.79;95.65
6532;BME280;3299;42.004;24.868;2022-09-09T04:47:20;98464.00;;;18.89;94.56
6532;BME280;3299;42.004;24.868;2022-09-09T04:49:46;98477.91;;;19.15;93.17
6532;BME280;3299;42.004;24.868;2022-09-09T04:52:12;98473.47;;;19.16;92.07
6532;BME280;3299;42.004;24.868;2022-09-09T04:54:37;98479.56;;;19.16;92.50
6532;BME280;3299;42.004;24.868;2022-09-09T04:57:04;98479.78;;;19.23;91.65
6532;BME280;3299;42.004;24.868;2022-09-09T04:59:29;98471.28;;;19.29;91.17
6532;BME280;3299;42.004;24.868;2022-09-09T05:01:55;98460.81;;;19.37;89.15
6532;BME280;3299;42.004;24.868;2022-09-09T05:04:21;98475.94;;;19.51;88.55
6532;BME280;3299;42.004;24.868;2022-09-09T05:06:46;98479.88;;;19.47;88.34
6532;BME280;3299;42.004;24.868;2022-09-09T05:09:12;98493.38;;;19.60;88.16
6532;BME280;3299;42.004;24.868;2022-09-09T05:11:37;98494.72;;;19.72;87.37
6532;BME280;3299;42.004;24.868;2022-09-09T05:14:03;98494.91;;;19.78;86.71
6532;BME280;3299;42.004;24.868;2022-09-09T05:16:29;98516.78;;;19.95;86.67
6532;BME280;3299;42.004;24.868;2022-09-09T05:18:55;98515.78;;;19.96;86.23
6532;BME280;3299;42.004;24.868;2022-09-09T05:21:23;98506.34;;;20.11;85.57
6532;BME280;3299;42.004;24.868;2022-09-09T05:23:50;98492.09;;;19.80;87.20
6532;BME280;3299;42.004;24.868;2022-09-09T05:26:18;98492.00;;;19.89;87.58
6532;BME280;3299;42.004;24.868;2022-09-09T05:28:44;98484.28;;;19.88;86.63
6532;BME280;3299;42.004;24.868;2022-09-09T05:31:11;98498.06;;;19.98;87.24
6532;BME280;3299;42.004;24.868;2022-09-09T05:33:39;98421.66;;;19.59;86.49
6532;BME280;3299;42.004;24.868;2022-09-09T05:36:13;98496.81;;;20.18;86.53
6532;BME280;3299;42.004;24.868;2022-09-09T05:38:39;98484.66;;;20.17;86.53
6532;BME280;3299;42.004;24.868;2022-09-09T05:41:06;98473.81;;;20.04;86.32
6532;BME280;3299;42.004;24.868;2022-09-09T05:43:32;98477.69;;;19.84;88.68
6532;BME280;3299;42.004;24.868;2022-09-09T05:46:00;98440.63;;;19.87;87.76
6532;BME280;3299;42.004;24.868;2022-09-09T05:48:38;98479.06;;;20.20;86.92
6532;BME280;3299;42.004;24.868;2022-09-09T05:51:06;98497.00;;;20.40;86.36
6532;BME280;3299;42.004;24.868;2022-09-09T05:53:32;98500.13;;;20.52;84.67
6532;BME280;3299;42.004;24.868;2022-09-09T05:56:03;98495.84;;;20.51;83.23
6532;BME280;3299;42.004;24.868;2022-09-09T05:58:31;98490.44;;;20.60;83.29
6532;BME280;3299;42.004;24.868;2022-09-09T06:01:01;98505.38;;;20.76;82.29
6532;BME280;3299;42.004;24.868;2022-09-09T06:03:27;98510.44;;;20.85;81.51
6532;BME280;3299;42.004;24.868;2022-09-09T06:06:04;98511.28;;;20.94;81.16
6532;BME280;3299;42.004;24.868;2022-09-09T06:08:34;98513.09;;;21.01;80.61
6532;BME280;3299;42.004;24.868;2022-09-09T06:11:13;98505.50;;;21.06;79.53
6532;BME280;3299;42.004;24.868;2022-09-09T06:13:39;98503.69;;;21.15;78.77
6532;BME280;3299;42.004;24.868;2022-09-09T06:16:07;98491.00;;;21.18;78.06
6532;BME280;3299;42.004;24.868;2022-09-09T06:18:33;98487.19;;;21.29;78.24
6532;BME280;3299;42.004;24.868;2022-09-09T06:21:05;98485.03;;;21.32;77.32
6532;BME280;3299;42.004;24.868;2022-09-09T06:23:32;98479.56;;;21.42;76.82
6532;BME280;3299;42.004;24.868;2022-09-09T06:26:10;98472.81;;;21.39;76.69
6532;BME280;3299;42.004;24.868;2022-09-09T06:28:36;98470.38;;;21.38;76.49
6532;BME280;3299;42.004;24.868;2022-09-09T06:31:07;98475.22;;;21.10;77.06
6532;BME280;3299;42.004;24.868;2022-09-09T06:33:35;98476.59;;;20.82;79.15
6532;BME280;3299;42.004;24.868;2022-09-09T06:36:03;98470.81;;;20.95;79.66
6532;BME280;3299;42.004;24.868;2022-09-09T06:38:29;98469.97;;;21.10;79.15
6532;BME280;3299;42.004;24.868;2022-09-09T06:40:55;98457.75;;;21.25;78.29
6532;BME280;3299;42.004;24.868;2022-09-09T06:43:22;98479.06;;;21.38;77.27
6532;BME280;3299;42.004;24.868;2022-09-09T06:46:08;98494.66;;;21.48;77.21
6532;BME280;3299;42.004;24.868;2022-09-09T06:48:35;98485.06;;;21.63;76.34
6532;BME280;3299;42.004;24.868;2022-09-09T06:51:04;98500.16;;;21.77;76.04
6532;BME280;3299;42.004;24.868;2022-09-09T06:53:32;98509.44;;;21.95;75.48
6532;BME280;3299;42.004;24.868;2022-09-09T06:56:02;98513.84;;;22.03;74.23
6532;BME280;3299;42.004;24.868;2022-09-09T06:58:27;98513.94;;;22.17;73.98
6532;BME280;3299;42.004;24.868;2022-09-09T07:01:07;98524.69;;;22.30;73.21
6532;BME280;3299;42.004;24.868;2022-09-09T07:03:33;98516.19;;;22.20;72.34
6532;BME280;3299;42.004;24.868;2022-09-09T07:05:59;98508.72;;;22.32;72.26
6532;BME280;3299;42.004;24.868;2022-09-09T07:08:25;98515.06;;;22.45;72.19
6532;BME280;3299;42.004;24.868;2022-09-09T07:10:51;98511.34;;;22.54;71.95
6532;BME280;3299;42.004;24.868;2022-09-09T07:13:25;98518.47;;;22.68;70.73
6532;BME280;3299;42.004;24.868;2022-09-09T07:15:52;98521.88;;;22.77;70.27
6532;BME280;3299;42.004;24.868;2022-09-09T07:18:18;98528.81;;;22.78;70.12
6532;BME280;3299;42.004;24.868;2022-09-09T07:20:52;98521.94;;;22.69;69.66
6532;BME280;3299;42.004;24.868;2022-09-09T07:23:18;98512.53;;;22.52;70.62
6532;BME280;3299;42.004;24.868;2022-09-09T07:25:46;98517.47;;;22.55;70.37
6532;BME280;3299;42.004;24.868;2022-09-09T07:28:13;98498.94;;;22.40;71.60
6532;BME280;3299;42.004;24.868;2022-09-09T07:30:38;98499.94;;;22.39;72.23
6532;BME280;3299;42.004;24.868;2022-09-09T07:33:04;98492.81;;;22.40;72.10
6532;BME280;3299;42.004;24.868;2022-09-09T07:35:29;98497.41;;;22.46;72.33
6532;BME280;3299;42.004;24.868;2022-09-09T07:37:55;98468.25;;;22.25;71.12
6532;BME280;3299;42.004;24.868;2022-09-09T07:40:20;98508.63;;;22.62;70.85
6532;BME280;3299;42.004;24.868;2022-09-09T07:42:47;98513.69;;;22.72;70.76
6532;BME280;3299;42.004;24.868;2022-09-09T07:45:13;98510.97;;;22.80;70.29
6532;BME280;3299;42.004;24.868;2022-09-09T07:47:39;98510.81;;;22.96;69.67
6532;BME280;3299;42.004;24.868;2022-09-09T07:50:06;98500.34;;;23.02;69.13
6532;BME280;3299;42.004;24.868;2022-09-09T07:52:33;98497.75;;;23.17;68.89
6532;BME280;3299;42.004;24.868;2022-09-09T07:54:59;98505.59;;;23.25;67.24
6532;BME280;3299;42.004;24.868;2022-09-09T07:57:25;98500.47;;;23.09;67.85
6532;BME280;3299;42.004;24.868;2022-09-09T07:59:50;98500.56;;;23.01;68.89
6532;BME280;3299;42.004;24.868;2022-09-09T08:02:16;98502.25;;;22.94;69.37
6532;BME280;3299;42.004;24.868;2022-09-09T08:04:42;98499.53;;;23.02;69.44
6532;BME280;3299;42.004;24.868;2022-09-09T08:07:07;98491.91;;;23.07;68.29
6532;BME280;3299;42.004;24.868;2022-09-09T08:09:33;98499.94;;;23.28;68.91
6532;BME280;3299;42.004;24.868;2022-09-09T08:11:59;98486.56;;;23.29;68.46
6532;BME280;3299;42.004;24.868;2022-09-09T08:14:26;98481.53;;;23.49;67.62
6532;BME280;3299;42.004;24.868;2022-09-09T08:16:52;98484.88;;;23.72;66.69
6532;BME280;3299;42.004;24.868;2022-09-09T08:19:19;98487.50;;;23.72;65.79
6532;BME280;3299;42.004;24.868;2022-09-09T08:21:45;98482.38;;;23.84;66.22
6532;BME280;3299;42.004;24.868;2022-09-09T08:24:11;98484.16;;;23.98;65.30
6532;BME280;3299;42.004;24.868;2022-09-09T08:26:40;98477.25;;;23.98;65.34
6532;BME280;3299;42.004;24.868;2022-09-09T08:29:07;98477.78;;;24.08;65.98
6532;BME280;3299;42.004;24.868;2022-09-09T08:31:38;98477.53;;;24.23;65.36
6532;BME280;3299;42.004;24.868;2022-09-09T08:34:05;98482.94;;;24.36;64.80
6532;BME280;3299;42.004;24.868;2022-09-09T08:36:33;98478.09;;;24.40;63.96
6532;BME280;3299;42.004;24.868;2022-09-09T08:39:00;98477.13;;;24.47;63.34
6532;BME280;3299;42.004;24.868;2022-09-09T08:52:30;98465.50;;;24.63;63.76
6532;BME280;3299;42.004;24.868;2022-09-09T08:55:01;98460.00;;;24.64;63.39
6532;BME280;3299;42.004;24.868;2022-09-09T08:57:30;98464.09;;;24.67;62.84
6532;BME280;3299;42.004;24.868;2022-09-09T08:59:58;98464.38;;;24.78;62.79
6532;BME280;3299;42.004;24.868;2022-09-09T09:05:31;98458.03;;;24.73;62.79
6532;BME280;3299;42.004;24.868;2022-09-09T09:10:47;98455.75;;;24.70;63.44
6532;BME280;3299;42.004;24.868;2022-09-09T09:13:17;98449.88;;;24.74;63.45
6532;BME280;3299;42.004;24.868;2022-09-09T09:15:44;98451.69;;;24.95;62.14
6532;BME280;3299;42.004;24.868;2022-09-09T09:18:12;98445.63;;;25.07;61.99
6532;BME280;3299;42.004;24.868;2022-09-09T09:23:15;98451.59;;;25.16;61.48
6532;BME280;3299;42.004;24.868;2022-09-09T09:25:43;98450.63;;;25.23;61.38
6532;BME280;3299;42.004;24.868;2022-09-09T09:28:16;98440.50;;;25.33;60.60
6532;BME280;3299;42.004;24.868;2022-09-09T09:30:50;98436.28;;;25.45;59.92
6532;BME280;3299;42.004;24.868;2022-09-09T09:33:30;98432.81;;;25.45;59.14
6532;BME280;3299;42.004;24.868;2022-09-09T09:35:57;98427.91;;;25.42;60.56
6532;BME280;3299;42.004;24.868;2022-09-09T09:38:27;98434.00;;;25.42;60.30
6532;BME280;3299;42.004;24.868;2022-09-09T09:40:55;98432.00;;;25.44;60.59
6532;BME280;3299;42.004;24.868;2022-09-09T09:43:31;98427.53;;;25.51;60.42
6532;BME280;3299;42.004;24.868;2022-09-09T09:45:57;98421.44;;;25.64;60.29
6532;BME280;3299;42.004;24.868;2022-09-09T09:48:24;98426.34;;;25.73;59.93
6532;BME280;3299;42.004;24.868;2022-09-09T09:50:53;98409.69;;;25.86;59.04
6532;BME280;3299;42.004;24.868;2022-09-09T09:53:27;98404.63;;;25.91;58.93
6532;BME280;3299;42.004;24.868;2022-09-09T09:58:21;98417.09;;;26.16;58.91
6532;BME280;3299;42.004;24.868;2022-09-09T10:00:51;98414.25;;;26.18;57.98
6532;BME280;3299;42.004;24.868;2022-09-09T10:03:26;98402.19;;;26.22;57.00
6532;BME280;3299;42.004;24.868;2022-09-09T10:05:53;98409.16;;;26.36;57.23
6532;BME280;3299;42.004;24.868;2022-09-09T10:08:19;98404.06;;;26.41;57.47
6532;BME280;3299;42.004;24.868;2022-09-09T10:11:09;98403.66;;;26.57;56.75
6532;BME280;3299;42.004;24.868;2022-09-09T10:19:36;98386.28;;;26.67;55.97
6532;BME280;3299;42.004;24.868;2022-09-09T10:33:09;98385.41;;;27.50;53.12
6532;BME280;3299;42.004;24.868;2022-09-09T10:35:50;98378.00;;;27.58;52.63
6532;BME280;3299;42.004;24.868;2022-09-09T10:38:41;98374.28;;;27.66;51.95
6532;BME280;3299;42.004;24.868;2022-09-09T10:41:35;98375.63;;;27.88;51.08
6532;BME280;3299;42.004;24.868;2022-09-09T10:44:43;98369.34;;;28.07;50.73
6532;BME280;3299;42.004;24.868;2022-09-09T10:55:22;98379.41;;;28.72;48.42
6532;BME280;3299;42.004;24.868;2022-09-09T10:57:53;98370.50;;;28.84;48.70
6532;BME280;3299;42.004;24.868;2022-09-09T11:00:39;98367.50;;;28.99;48.20
6532;BME280;3299;42.004;24.868;2022-09-09T11:03:06;98373.50;;;29.12;48.10
6532;BME280;3299;42.004;24.868;2022-09-09T11:05:46;98360.00;;;29.25;46.66
6532;BME280;3299;42.004;24.868;2022-09-09T11:08:22;98356.44;;;29.31;47.37
6532;BME280;3299;42.004;24.868;2022-09-09T11:11:08;98354.19;;;29.46;47.35
6532;BME280;3299;42.004;24.868;2022-09-09T11:18:59;98353.63;;;29.74;45.46
6532;BME280;3299;42.004;24.868;2022-09-09T11:21:37;98356.50;;;29.72;45.69
6532;BME280;3299;42.004;24.868;2022-09-09T11:24:20;98350.94;;;29.74;46.20
6532;BME280;3299;42.004;24.868;2022-09-09T11:26:55;98345.84;;;29.72;46.44
6532;BME280;3299;42.004;24.868;2022-09-09T11:29:40;98344.69;;;29.80;45.70
6532;BME280;3299;42.004;24.868;2022-09-09T11:40:24;98337.16;;;30.29;44.81
6532;BME280;3299;42.004;24.868;2022-09-09T11:45:40;98333.19;;;30.55;43.36
6532;BME280;3299;42.004;24.868;2022-09-09T11:48:23;98330.19;;;30.51;44.44
6532;BME280;3299;42.004;24.868;2022-09-09T11:50:58;98337.63;;;30.61;44.39
6532;BME280;3299;42.004;24.868;2022-09-09T11:53:24;98333.78;;;30.45;44.54
6532;BME280;3299;42.004;24.868;2022-09-09T11:56:09;98326.34;;;30.24;44.35
6532;BME280;3299;42.004;24.868;2022-09-09T11:58:44;98331.56;;;30.42;44.14
6532;BME280;3299;42.004;24.868;2022-09-09T12:01:54;98325.88;;;30.73;44.04
6532;BME280;3299;42.004;24.868;2022-09-09T12:06:59;98316.25;;;31.23;42.03
6532;BME280;3299;42.004;24.868;2022-09-09T12:10:22;98322.81;;;31.44;41.59
6532;BME280;3299;42.004;24.868;2022-09-09T12:19:40;98310.34;;;30.70;42.72
6532;BME280;3299;42.004;24.868;2022-09-09T12:27:26;98294.28;;;30.36;44.45
6532;BME280;3299;42.004;24.868;2022-09-09T12:30:09;98297.53;;;30.61;43.44
6532;BME280;3299;42.004;24.868;2022-09-09T12:32:35;98291.63;;;30.47;43.72
6532;BME280;3299;42.004;24.868;2022-09-09T12:35:14;98284.66;;;30.35;43.97
6532;BME280;3299;42.004;24.868;2022-09-09T12:40:23;98272.94;;;30.24;44.53
6532;BME280;3299;42.004;24.868;2022-09-09T12:42:49;98271.75;;;30.43;44.28
6532;BME280;3299;42.004;24.868;2022-09-09T12:45:23;98263.03;;;30.59;44.43
6532;BME280;3299;42.004;24.868;2022-09-09T12:48:06;98260.28;;;30.66;43.77
6532;BME280;3299;42.004;24.868;2022-09-09T12:50:35;98257.63;;;30.94;43.59
6532;BME280;3299;42.004;24.868;2022-09-09T12:53:10;98257.94;;;31.20;42.91
6532;BME280;3299;42.004;24.868;2022-09-09T12:55:50;98258.69;;;31.32;42.51
6532;BME280;3299;42.004;24.868;2022-09-09T12:58:17;98258.03;;;31.42;42.34
6532;BME280;3299;42.004;24.868;2022-09-09T13:00:51;98255.91;;;31.27;42.58
6532;BME280;3299;42.004;24.868;2022-09-09T13:03:19;98260.53;;;31.32;42.90
6532;BME280;3299;42.004;24.868;2022-09-09T13:05:46;98258.91;;;31.31;41.79
6532;BME280;3299;42.004;24.868;2022-09-09T13:08:13;98253.22;;;31.27;42.16
6532;BME280;3299;42.004;24.868;2022-09-09T13:10:40;98245.84;;;31.06;42.58
6532;BME280;3299;42.004;24.868;2022-09-09T13:13:23;98240.22;;;30.91;43.51
6532;BME280;3299;42.004;24.868;2022-09-09T13:15:56;98226.69;;;30.98;43.63
6532;BME280;3299;42.004;24.868;2022-09-09T13:18:24;98244.38;;;31.27;42.77
6532;BME280;3299;42.004;24.868;2022-09-09T13:20:50;98242.09;;;31.47;42.10
6532;BME280;3299;42.004;24.868;2022-09-09T13:23:18;98245.09;;;31.67;41.88
6532;BME280;3299;42.004;24.868;2022-09-09T13:25:59;98237.81;;;31.95;41.48
6532;BME280;3299;42.004;24.868;2022-09-09T13:28:27;98237.13;;;32.21;40.51
6532;BME280;3299;42.004;24.868;2022-09-09T13:31:00;98236.38;;;32.42;40.66
6532;BME280;3299;42.004;24.868;2022-09-09T13:33:34;98231.34;;;32.67;40.27
6532;BME280;3299;42.004;24.868;2022-09-09T13:36:07;98211.34;;;32.75;40.05
6532;BME280;3299;42.004;24.868;2022-09-09T13:38:58;98232.09;;;33.06;39.43
6532;BME280;3299;42.004;24.868;2022-09-09T13:41:41;98232.59;;;33.29;38.65
6532;BME280;3299;42.004;24.868;2022-09-09T13:44:18;98248.22;;;33.32;37.70
6532;BME280;3299;42.004;24.868;2022-09-09T13:46:45;98235.78;;;33.26;38.42
6532;BME280;3299;42.004;24.868;2022-09-09T13:54:09;98225.41;;;33.61;38.05
6532;BME280;3299;42.004;24.868;2022-09-09T13:56:36;98222.75;;;33.66;38.20
6532;BME280;3299;42.004;24.868;2022-09-09T13:59:03;98228.03;;;33.56;37.17
6532;BME280;3299;42.004;24.868;2022-09-09T14:01:29;98215.09;;;33.48;38.27
6532;BME280;3299;42.004;24.868;2022-09-09T14:03:55;98214.78;;;33.18;41.00
6532;BME280;3299;42.004;24.868;2022-09-09T14:06:27;98216.19;;;32.99;40.19
6532;BME280;3299;42.004;24.868;2022-09-09T14:08:54;98203.47;;;32.68;41.21
6532;BME280;3299;42.004;24.868;2022-09-09T14:11:20;98194.38;;;32.26;42.03
6532;BME280;3299;42.004;24.868;2022-09-09T14:13:47;98196.22;;;31.88;44.39
6532;BME280;3299;42.004;24.868;2022-09-09T14:16:18;98186.94;;;31.29;45.80
6532;BME280;3299;42.004;24.868;2022-09-09T14:18:45;98188.47;;;31.25;44.96
6532;BME280;3299;42.004;24.868;2022-09-09T14:21:10;98188.75;;;30.84;46.96
6532;BME280;3299;42.004;24.868;2022-09-09T14:23:37;98187.63;;;30.80;46.81
6532;BME280;3299;42.004;24.868;2022-09-09T14:26:04;98189.56;;;30.85;45.60
6532;BME280;3299;42.004;24.868;2022-09-09T14:28:29;98184.22;;;30.45;49.05
6532;BME280;3299;42.004;24.868;2022-09-09T14:30:55;98181.69;;;30.39;49.52
6532;BME280;3299;42.004;24.868;2022-09-09T14:33:21;98176.22;;;30.34;48.26
6532;BME280;3299;42.004;24.868;2022-09-09T14:35:46;98178.78;;;30.29;48.73
6532;BME280;3299;42.004;24.868;2022-09-09T14:38:11;98169.66;;;29.79;52.59
6532;BME280;3299;42.004;24.868;2022-09-09T14:40:38;98155.84;;;29.59;52.61
6532;BME280;3299;42.004;24.868;2022-09-09T14:43:04;98160.03;;;29.55;52.89
6532;BME280;3299;42.004;24.868;2022-09-09T14:45:30;98159.72;;;29.33;54.05
6532;BME280;3299;42.004;24.868;2022-09-09T14:47:56;98166.44;;;29.24;55.85
6532;BME280;3299;42.004;24.868;2022-09-09T14:50:22;98165.03;;;29.22;56.63
6532;BME280;3299;42.004;24.868;2022-09-09T14:52:48;98169.22;;;29.29;56.87
6532;BME280;3299;42.004;24.868;2022-09-09T14:55:14;98156.47;;;29.31;53.84
6532;BME280;3299;42.004;24.868;2022-09-09T14:57:41;98170.28;;;29.51;53.32
6532;BME280;3299;42.004;24.868;2022-09-09T15:00:08;98166.84;;;29.62;51.88
6532;BME280;3299;42.004;24.868;2022-09-09T15:02:34;98171.50;;;29.67;51.19
6532;BME280;3299;42.004;24.868;2022-09-09T15:04:59;98168.94;;;29.72;50.28
6532;BME280;3299;42.004;24.868;2022-09-09T15:07:25;98171.50;;;29.67;50.10
6532;BME280;3299;42.004;24.868;2022-09-09T15:09:51;98168.94;;;29.60;49.76
6532;BME280;3299;42.004;24.868;2022-09-09T15:12:18;98173.22;;;29.61;49.67
6532;BME280;3299;42.004;24.868;2022-09-09T15:14:46;98165.38;;;29.55;49.94
6532;BME280;3299;42.004;24.868;2022-09-09T15:17:12;98158.13;;;29.44;50.57
6532;BME280;3299;42.004;24.868;2022-09-09T15:19:38;98164.59;;;29.36;50.68
6532;BME280;3299;42.004;24.868;2022-09-09T15:22:04;98168.28;;;29.24;51.54
6532;BME280;3299;42.004;24.868;2022-09-09T15:24:33;98168.06;;;29.25;51.83
6532;BME280;3299;42.004;24.868;2022-09-09T15:26:59;98164.22;;;29.21;52.09
6532;BME280;3299;42.004;24.868;2022-09-09T15:29:25;98163.16;;;29.22;52.46
6532;BME280;3299;42.004;24.868;2022-09-09T15:31:50;98168.28;;;29.24;52.57
6532;BME280;3299;42.004;24.868;2022-09-09T15:34:15;98165.47;;;29.19;52.86
6532;BME280;3299;42.004;24.868;2022-09-09T15:36:43;98172.91;;;29.17;52.93
6532;BME280;3299;42.004;24.868;2022-09-09T15:39:11;98163.25;;;29.04;53.44
6532;BME280;3299;42.004;24.868;2022-09-09T15:41:38;98164.16;;;28.98;53.67
6532;BME280;3299;42.004;24.868;2022-09-09T15:44:04;98156.31;;;28.85;54.24
6532;BME280;3299;42.004;24.868;2022-09-09T15:51:31;98149.88;;;28.27;59.32
6532;BME280;3299;42.004;24.868;2022-09-09T15:53:58;98141.03;;;27.97;60.80